createdAt,value
2022-09-10T00:01:32.058Z,11.66
2022-09-10T00:04:01.821Z,11.43
2022-09-10T00:06:30.106Z,11.53
2022-09-10T00:09:01.559Z,11.31
2022-09-10T00:11:32.064Z,11.44
2022-09-10T00:14:04.879Z,11.44
2022-09-10T00:16:33.922Z,11.49
2022-09-10T00:19:02.975Z,11.41
2022-09-10T00:21:31.565Z,11.30
2022-09-10T00:24:02.607Z,11.29
2022-09-10T00:26:49.023Z,11.27
2022-09-10T00:29:35.086Z,11.24
2022-09-10T00:32:22.096Z,11.32
2022-09-10T00:35:10.950Z,11.35
2022-09-10T00:37:57.548Z,11.27
2022-09-10T00:40:43.526Z,11.22
2022-09-10T00:43:56.121Z,11.03
2022-09-10T00:46:50.401Z,11.35
2022-09-10T00:49:43.450Z,11.38
2022-09-10T00:52:29.637Z,11.34
2022-09-10T00:55:41.611Z,11.43
2022-09-10T00:58:28.633Z,11.32
2022-09-10T01:01:15.699Z,11.33
2022-09-10T01:04:02.225Z,11.29
2022-09-10T01:06:52.302Z,11.16
2022-09-10T01:09:39.528Z,11.17
2022-09-10T01:12:58.253Z,11.27
2022-09-10T01:16:22.964Z,11.12
2022-09-10T01:19:25.072Z,11.22
2022-09-10T01:22:33.059Z,10.71
2022-09-10T01:25:41.763Z,11.19
2022-09-10T01:28:51.797Z,11.22
2022-09-10T01:31:52.625Z,11.16
2022-09-10T01:35:10.432Z,11.21
2022-09-10T01:38:03.686Z,11.28
2022-09-10T01:40:50.390Z,11.23
2022-09-10T01:43:39.338Z,11.13
2022-09-10T01:46:35.146Z,11.22
2022-09-10T01:49:39.656Z,11.17
2022-09-10T01:52:42.524Z,11.18
2022-09-10T01:55:54.200Z,10.86
2022-09-10T01:58:44.686Z,11.13
2022-09-10T02:01:53.709Z,11.05
2022-09-10T02:04:41.928Z,11.11
2022-09-10T02:07:28.631Z,11.31
2022-09-10T02:10:15.335Z,11.41
2022-09-10T02:13:04.799Z,11.37
2022-09-10T02:16:03.954Z,11.51
2022-09-10T02:19:01.538Z,11.43
2022-09-10T02:21:48.859Z,11.59
2022-09-10T02:24:34.423Z,11.61
2022-09-10T02:27:20.203Z,11.62
2022-09-10T02:30:07.724Z,11.71
2022-09-10T02:32:53.708Z,11.56
2022-09-10T02:35:39.596Z,11.55
2022-09-10T02:38:25.375Z,11.73
2022-09-10T02:41:15.860Z,11.71
2022-09-10T02:44:02.664Z,11.77
2022-09-10T02:46:49.159Z,11.73
2022-09-10T02:49:35.145Z,11.69
2022-09-10T02:52:22.358Z,11.58
2022-09-10T02:55:08.862Z,11.56
2022-09-10T02:57:55.767Z,11.35
2022-09-10T03:00:42.100Z,11.35
2022-09-10T03:03:55.772Z,11.29
2022-09-10T03:06:41.556Z,11.13
2022-09-10T03:09:29.181Z,11.06
2022-09-10T03:12:18.231Z,10.87
2022-09-10T03:15:05.241Z,11.10
2022-09-10T03:17:51.738Z,11.08
2022-09-10T03:20:38.646Z,11.03
2022-09-10T03:23:24.539Z,11.07
2022-09-10T03:26:12.147Z,11.04
2022-09-10T03:28:58.135Z,11.09
2022-09-10T03:31:47.018Z,11.09
2022-09-10T03:34:35.737Z,11.12
2022-09-10T03:37:22.433Z,11.03
2022-09-10T03:40:10.097Z,10.96
2022-09-10T03:42:56.457Z,10.97
2022-09-10T03:45:42.758Z,11.10
2022-09-10T03:48:32.923Z,11.16
2022-09-10T03:51:18.804Z,11.14
2022-09-10T03:54:06.430Z,11.02
2022-09-10T03:56:52.720Z,11.12
2022-09-10T03:59:41.472Z,11.17
2022-09-10T04:02:29.561Z,11.05
2022-09-10T04:05:16.918Z,11.00
2022-09-10T04:08:03.107Z,10.96
2022-09-10T04:10:49.817Z,10.83
2022-09-10T04:13:36.313Z,10.77
2022-09-10T04:16:23.792Z,10.83
2022-09-10T04:19:09.509Z,10.87
2022-09-10T04:21:56.105Z,10.92
2022-09-10T04:24:42.705Z,11.06
2022-09-10T04:27:28.794Z,11.09
2022-09-10T04:30:16.209Z,11.23
2022-09-10T04:33:04.349Z,11.27
2022-09-10T04:35:52.072Z,11.27
2022-09-10T04:38:44.809Z,11.27
2022-09-10T04:41:33.250Z,11.28
2022-09-10T04:44:20.562Z,11.12
2022-09-10T04:47:06.656Z,11.15
2022-09-10T04:49:53.150Z,11.14
2022-09-10T04:52:39.955Z,11.06
2022-09-10T04:55:27.715Z,11.05
2022-09-10T04:58:13.372Z,11.15
2022-09-10T05:01:00.676Z,11.20
2022-09-10T05:03:47.467Z,11.30
2022-09-10T05:06:33.848Z,11.32
2022-09-10T05:09:19.504Z,11.39
2022-09-10T05:12:05.118Z,11.33
2022-09-10T05:14:51.303Z,11.49
2022-09-10T05:17:37.145Z,11.49
2022-09-10T05:20:22.651Z,11.48
2022-09-10T05:23:11.223Z,11.50
2022-09-10T05:25:57.515Z,11.53
2022-09-10T05:28:43.905Z,11.63
2022-09-10T05:31:35.655Z,11.68
2022-09-10T05:34:22.219Z,11.70
2022-09-10T05:37:09.637Z,11.76
2022-09-10T05:39:56.562Z,11.90
2022-09-10T05:42:42.836Z,11.99
2022-09-10T05:45:29.373Z,12.06
2022-09-10T05:48:18.081Z,12.19
2022-09-10T05:51:04.374Z,12.20
2022-09-10T05:53:51.284Z,12.22
2022-09-10T05:56:38.504Z,12.27
2022-09-10T05:59:28.190Z,12.27
2022-09-10T06:02:21.813Z,12.30
2022-09-10T06:05:12.516Z,12.34
2022-09-10T06:07:59.122Z,12.42
2022-09-10T06:11:02.396Z,12.62
2022-09-10T06:13:53.704Z,12.51
2022-09-10T06:16:40.218Z,12.81
2022-09-10T06:19:27.003Z,12.83
2022-09-10T06:22:14.838Z,12.75
2022-09-10T06:25:07.569Z,13.03
2022-09-10T06:27:54.687Z,13.00
2022-09-10T06:30:40.626Z,13.00
2022-09-10T06:33:29.230Z,13.07
2022-09-10T06:36:15.605Z,13.06
2022-09-10T06:39:03.738Z,13.18
2022-09-10T06:41:58.841Z,13.15
2022-09-10T06:45:14.298Z,13.04
2022-09-10T06:48:48.389Z,13.12
2022-09-10T06:51:20.130Z,13.21
2022-09-10T06:54:08.059Z,13.16
2022-09-10T06:56:53.745Z,13.17
2022-09-10T06:59:40.326Z,13.15
2022-09-10T07:02:26.368Z,13.12
2022-09-10T07:05:14.151Z,13.20
2022-09-10T07:08:02.696Z,13.27
2022-09-10T07:10:49.296Z,13.38
2022-09-10T07:13:35.789Z,13.35
2022-09-10T07:16:24.439Z,13.39
2022-09-10T07:19:15.206Z,13.34
2022-09-10T07:22:04.092Z,12.91
2022-09-10T07:24:55.602Z,13.33
2022-09-10T07:28:01.742Z,13.11
2022-09-10T07:30:50.097Z,13.33
2022-09-10T07:33:36.590Z,13.32
2022-09-10T07:36:22.560Z,13.59
2022-09-10T07:39:09.875Z,13.69
2022-09-10T07:41:58.115Z,13.78
2022-09-10T07:44:47.581Z,13.80
2022-09-10T07:47:36.425Z,13.96
2022-09-10T07:50:22.518Z,13.94
2022-09-10T07:53:11.779Z,14.00
2022-09-10T07:56:03.083Z,14.11
2022-09-10T07:58:54.197Z,14.21
2022-09-10T08:01:40.541Z,14.18
2022-09-10T08:04:51.947Z,14.16
2022-09-10T08:12:04.307Z,14.11
2022-09-10T08:14:51.109Z,13.93
2022-09-10T08:17:37.907Z,14.18
2022-09-10T08:20:25.532Z,14.25
2022-09-10T08:23:12.848Z,14.44
2022-09-10T08:26:00.368Z,14.63
2022-09-10T08:28:52.818Z,14.45
2022-09-10T08:31:39.398Z,15.02
2022-09-10T08:34:37.488Z,14.99
2022-09-10T08:37:29.289Z,14.80
2022-09-10T08:40:15.541Z,14.88
2022-09-10T08:43:02.080Z,14.85
2022-09-10T08:45:51.762Z,14.88
2022-09-10T08:48:39.987Z,14.77
2022-09-10T08:51:31.587Z,14.94
2022-09-10T08:54:44.183Z,15.16
2022-09-10T08:57:38.148Z,15.13
2022-09-10T09:00:27.714Z,15.20
2022-09-10T09:03:17.975Z,15.23
2022-09-10T09:06:08.795Z,15.25
2022-09-10T09:09:05.010Z,15.24
2022-09-10T09:12:07.778Z,15.26
2022-09-10T09:15:17.811Z,15.25
2022-09-10T09:18:09.019Z,15.16
2022-09-10T09:21:01.862Z,15.25
2022-09-10T09:27:15.992Z,15.08
2022-09-10T09:30:06.377Z,15.08
2022-09-10T09:33:02.432Z,15.10
2022-09-10T09:35:53.072Z,15.16
2022-09-10T09:38:47.151Z,15.13
2022-09-10T09:41:51.147Z,15.17
2022-09-10T09:44:43.518Z,14.98
2022-09-10T09:47:28.900Z,15.17
2022-09-10T09:50:14.432Z,15.26
2022-09-10T09:52:59.266Z,15.33
2022-09-10T09:55:47.212Z,15.22
2022-09-10T09:58:37.285Z,15.28
2022-09-10T10:01:29.249Z,15.31
2022-09-10T10:04:30.837Z,15.27
2022-09-10T10:07:25.157Z,15.43
2022-09-10T10:10:23.263Z,15.46
2022-09-10T10:13:20.713Z,15.74
2022-09-10T10:16:14.069Z,16.05
2022-09-10T10:18:59.293Z,16.19
2022-09-10T10:21:46.953Z,16.44
2022-09-10T10:24:33.925Z,16.81
2022-09-10T10:27:33.189Z,16.90
2022-09-10T10:30:22.037Z,16.92
2022-09-10T10:33:18.144Z,16.92
2022-09-10T10:36:15.832Z,16.89
2022-09-10T10:39:19.324Z,16.58
2022-09-10T10:42:29.104Z,16.38
2022-09-10T10:45:26.668Z,16.27
2022-09-10T10:48:28.423Z,15.91
2022-09-10T10:51:35.922Z,15.77
2022-09-10T10:54:44.258Z,15.83
2022-09-10T10:57:35.679Z,16.14
2022-09-10T11:00:21.027Z,16.27
2022-09-10T11:03:45.208Z,16.45
2022-09-10T11:06:40.922Z,16.36
2022-09-10T11:09:31.910Z,16.90
2022-09-10T11:12:20.953Z,18.15
2022-09-10T11:15:31.355Z,18.27
2022-09-10T11:18:37.908Z,18.08
2022-09-10T11:21:40.337Z,18.23
2022-09-10T11:24:34.189Z,19.27
2022-09-10T11:27:45.467Z,19.45
2022-09-10T11:30:33.494Z,18.97
2022-09-10T11:33:33.605Z,18.21
2022-09-10T11:36:25.734Z,17.68
2022-09-10T11:39:23.790Z,17.50
2022-09-10T11:42:28.509Z,17.45
2022-09-10T11:45:29.857Z,17.49
2022-09-10T11:48:24.830Z,18.36
2022-09-10T11:51:29.644Z,19.66
2022-09-10T11:54:17.986Z,20.06
2022-09-10T11:57:13.181Z,20.36
2022-09-10T12:00:12.980Z,20.59
2022-09-10T12:03:30.510Z,20.81
2022-09-10T12:06:47.680Z,20.57
2022-09-10T12:10:01.808Z,21.44
2022-09-10T12:12:50.556Z,21.18
2022-09-10T12:15:38.116Z,20.89
2022-09-10T12:18:28.671Z,20.65
2022-09-10T12:21:26.217Z,19.73
2022-09-10T12:24:33.998Z,19.25
2022-09-10T12:27:20.598Z,18.82
2022-09-10T12:30:25.415Z,18.24
2022-09-10T12:33:17.340Z,17.92
2022-09-10T12:36:04.034Z,17.73
2022-09-10T12:39:24.813Z,17.05
2022-09-10T12:42:24.997Z,16.47
2022-09-10T12:45:10.631Z,16.58
2022-09-10T12:47:55.938Z,16.40
2022-09-10T12:50:46.162Z,16.32
2022-09-10T12:53:47.332Z,16.46
2022-09-10T12:56:57.917Z,16.72
2022-09-10T13:00:12.657Z,16.97
2022-09-10T13:03:11.435Z,17.18
2022-09-10T13:06:00.868Z,17.48
2022-09-10T13:08:47.619Z,17.76
2022-09-10T13:11:34.795Z,17.81
2022-09-10T13:14:23.834Z,17.69
2022-09-10T13:17:37.620Z,17.91
2022-09-10T13:20:26.288Z,18.16
2022-09-10T13:23:11.844Z,18.19
2022-09-10T13:26:25.931Z,18.14
2022-09-10T13:29:30.546Z,18.25
2022-09-10T13:32:38.616Z,18.44
2022-09-10T13:35:48.599Z,18.45
2022-09-10T13:39:03.360Z,18.02
2022-09-10T13:42:16.547Z,17.71
2022-09-10T13:45:36.211Z,17.88
2022-09-10T13:48:25.290Z,17.57
2022-09-10T13:51:32.332Z,17.88
2022-09-10T13:54:35.298Z,17.72
2022-09-10T13:57:29.838Z,17.82
2022-09-10T14:00:24.150Z,17.48
2022-09-10T14:03:21.413Z,17.30
2022-09-10T14:06:22.139Z,17.21
2022-09-10T14:09:07.745Z,16.92
2022-09-10T14:11:53.231Z,16.42
2022-09-10T14:14:40.966Z,16.30
2022-09-10T14:17:34.142Z,16.49
2022-09-10T14:20:26.312Z,16.90
2022-09-10T14:23:15.756Z,17.04
2022-09-10T14:26:23.513Z,17.09
2022-09-10T14:29:24.836Z,17.30
2022-09-10T14:32:17.027Z,17.09
2022-09-10T14:35:37.583Z,17.21
2022-09-10T14:38:31.112Z,17.11
2022-09-10T14:41:19.184Z,17.20
2022-09-10T14:44:22.756Z,17.10
2022-09-10T14:47:10.853Z,16.85
2022-09-10T14:50:25.769Z,16.84
2022-09-10T14:53:10.807Z,16.71
2022-09-10T14:55:56.250Z,16.89
2022-09-10T14:58:42.098Z,16.77
2022-09-10T15:01:28.612Z,16.83
2022-09-10T15:04:24.467Z,16.74
2022-09-10T15:07:09.777Z,16.58
2022-09-10T15:09:55.124Z,16.69
2022-09-10T15:12:42.145Z,16.75
2022-09-10T15:15:29.784Z,16.68
2022-09-10T15:18:17.207Z,16.77
2022-09-10T15:21:04.782Z,16.76
2022-09-10T15:23:50.380Z,16.72
2022-09-10T15:26:38.307Z,16.66
2022-09-10T15:29:23.889Z,16.57
2022-09-10T15:32:10.567Z,16.52
2022-09-10T15:34:55.566Z,16.49
2022-09-10T15:37:41.179Z,16.41
2022-09-10T15:40:26.468Z,16.33
2022-09-10T15:43:12.388Z,16.50
2022-09-10T15:46:01.576Z,16.69
2022-09-10T15:48:47.539Z,16.78
2022-09-10T15:51:32.581Z,16.78
2022-09-10T15:54:17.847Z,16.67
2022-09-10T15:57:03.250Z,16.61
2022-09-10T15:59:48.449Z,16.55
2022-09-10T16:02:34.111Z,16.35
2022-09-10T16:05:21.832Z,16.46
2022-09-10T16:08:07.732Z,16.37
2022-09-10T16:10:53.162Z,16.50
2022-09-10T16:13:39.707Z,16.46
2022-09-10T16:16:28.556Z,16.36
2022-09-10T16:19:14.134Z,16.11
2022-09-10T16:21:59.519Z,16.06
2022-09-10T16:24:44.533Z,16.04
2022-09-10T16:27:29.653Z,15.85
2022-09-10T16:30:15.527Z,15.89
2022-09-10T16:33:02.509Z,15.78
2022-09-10T16:35:48.288Z,15.74
2022-09-10T16:38:37.311Z,15.70
2022-09-10T16:41:24.351Z,15.84
2022-09-10T16:44:11.867Z,15.69
2022-09-10T16:46:59.422Z,15.63
2022-09-10T16:49:45.476Z,15.63
2022-09-10T16:52:31.570Z,15.79
2022-09-10T16:55:18.268Z,15.68
2022-09-10T16:58:04.456Z,15.67
2022-09-10T17:00:52.488Z,15.39
2022-09-10T17:03:44.110Z,15.60
2022-09-10T17:06:31.951Z,15.28
2022-09-10T17:09:18.566Z,15.61
2022-09-10T17:12:05.343Z,15.68
2022-09-10T17:14:51.727Z,15.47
2022-09-10T17:17:38.328Z,15.57
2022-09-10T17:20:24.620Z,15.56
2022-09-10T17:23:13.676Z,15.50
2022-09-10T17:26:05.499Z,15.55
2022-09-10T17:28:54.161Z,15.51
2022-09-10T17:31:40.531Z,15.28
2022-09-10T17:34:27.443Z,15.36
2022-09-10T17:37:13.637Z,15.24
2022-09-10T17:40:02.549Z,15.13
2022-09-10T17:42:49.493Z,15.15
2022-09-10T17:45:37.824Z,15.23
2022-09-10T17:48:28.098Z,15.07
2022-09-10T17:51:16.351Z,15.03
2022-09-10T17:54:04.993Z,15.02
2022-09-10T17:56:50.784Z,14.83
2022-09-10T17:59:37.380Z,14.86
2022-09-10T18:02:27.387Z,14.88
2022-09-10T18:05:13.755Z,14.84
2022-09-10T18:08:00.038Z,14.88
2022-09-10T18:10:46.535Z,14.78
2022-09-10T18:13:34.568Z,14.77
2022-09-10T18:16:25.672Z,14.94
2022-09-10T18:19:16.362Z,14.90
2022-09-10T18:22:02.041Z,14.88
2022-09-10T18:24:51.811Z,14.92
2022-09-10T18:27:38.206Z,14.80
2022-09-10T18:30:26.485Z,14.84
2022-09-10T18:33:13.456Z,14.94
2022-09-10T18:36:00.055Z,14.97
2022-09-10T18:38:50.230Z,14.85
2022-09-10T18:41:36.725Z,14.74
2022-09-10T18:44:33.464Z,14.74
2022-09-10T18:47:41.217Z,14.76
2022-09-10T18:50:26.820Z,14.55
2022-09-10T18:53:13.314Z,14.50
2022-09-10T18:56:06.964Z,14.48
2022-09-10T18:59:01.354Z,14.57
2022-09-10T19:01:48.742Z,14.34
2022-09-10T19:04:54.402Z,14.42
2022-09-10T19:07:43.258Z,14.39
2022-09-10T19:10:30.266Z,14.40
2022-09-10T19:13:16.757Z,14.47
2022-09-10T19:16:04.149Z,14.49
2022-09-10T19:18:56.409Z,14.46
2022-09-10T19:21:42.391Z,14.51
2022-09-10T19:24:50.952Z,14.48
2022-09-10T19:27:38.000Z,14.38
2022-09-10T19:30:25.213Z,14.31
2022-09-10T19:33:11.401Z,14.31
2022-09-10T19:36:03.935Z,14.32
2022-09-10T19:38:50.743Z,14.31
2022-09-10T19:41:39.390Z,14.33
2022-09-10T19:44:25.676Z,14.17
2022-09-10T19:47:12.177Z,14.28
2022-09-10T19:49:59.906Z,14.21
2022-09-10T19:52:46.399Z,14.27
2022-09-10T19:55:32.892Z,14.23
2022-09-10T19:58:20.005Z,14.23
2022-09-10T20:01:14.815Z,14.23
2022-09-10T20:04:02.006Z,14.28
2022-09-10T20:06:50.858Z,14.18
2022-09-10T20:09:40.046Z,13.79
2022-09-10T20:12:26.920Z,14.08
2022-09-10T20:15:13.725Z,13.85
2022-09-10T20:18:00.531Z,14.13
2022-09-10T20:20:47.746Z,14.27
2022-09-10T20:23:33.635Z,14.08
2022-09-10T20:26:31.073Z,14.27
2022-09-10T20:29:18.694Z,14.14
2022-09-10T20:32:07.851Z,13.63
2022-09-10T20:34:53.738Z,13.97
2022-09-10T20:37:39.612Z,14.10
2022-09-10T20:40:25.703Z,14.10
2022-09-10T20:43:12.509Z,14.11
2022-09-10T20:45:58.996Z,14.13
2022-09-10T20:48:49.007Z,14.10
2022-09-10T20:51:39.161Z,14.20
2022-09-10T20:54:28.320Z,14.11
2022-09-10T20:57:14.512Z,14.16
2022-09-10T21:00:00.699Z,14.16
2022-09-10T21:02:47.464Z,14.14
2022-09-10T21:05:34.009Z,14.02
2022-09-10T21:08:20.803Z,14.04
2022-09-10T21:11:12.521Z,14.05
2022-09-10T21:14:00.657Z,13.98
2022-09-10T21:16:47.558Z,13.78
2022-09-10T21:19:33.961Z,13.93
2022-09-10T21:22:20.760Z,13.85
2022-09-10T21:25:07.767Z,13.87
2022-09-10T21:27:54.171Z,13.77
2022-09-10T21:30:40.165Z,13.76
2022-09-10T21:33:26.131Z,13.80
2022-09-10T21:36:14.886Z,13.72
2022-09-10T21:39:04.448Z,13.59
2022-09-10T21:41:50.851Z,13.67
2022-09-10T21:44:36.832Z,13.63
2022-09-10T21:47:23.019Z,13.47
2022-09-10T21:50:09.423Z,13.66
2022-09-10T21:52:55.600Z,13.62
2022-09-10T21:55:42.103Z,13.60
2022-09-10T21:58:29.822Z,13.68
2022-09-10T22:01:23.634Z,13.69
2022-09-10T22:04:12.545Z,13.68
2022-09-10T22:06:59.142Z,13.67
2022-09-10T22:09:45.331Z,13.49
2022-09-10T22:12:31.931Z,13.61
2022-09-10T22:15:18.221Z,13.54
2022-09-10T22:18:04.514Z,13.55
2022-09-10T22:20:50.607Z,13.39
2022-09-10T22:23:38.736Z,13.38
2022-09-10T22:26:30.660Z,13.67
2022-09-10T22:29:18.707Z,13.54
2022-09-10T22:32:05.181Z,13.61
2022-09-10T22:34:51.271Z,13.56
2022-09-10T22:37:37.975Z,13.65
2022-09-10T22:40:25.084Z,13.66
2022-09-10T22:43:11.488Z,13.63
2022-09-10T22:46:03.023Z,13.58
2022-09-10T22:48:49.906Z,13.57
2022-09-10T22:51:38.446Z,13.67
2022-09-10T22:54:25.043Z,13.60
2022-09-10T22:57:11.069Z,13.52
2022-09-10T22:59:56.806Z,13.52
2022-09-10T23:02:43.103Z,13.52
2022-09-10T23:05:30.927Z,13.54
2022-09-10T23:08:17.350Z,13.55
2022-09-10T23:11:17.450Z,13.39
2022-09-10T23:14:06.890Z,13.49
2022-09-10T23:16:53.187Z,13.51
2022-09-10T23:19:39.274Z,13.41
2022-09-10T23:22:26.178Z,13.48
2022-09-10T23:25:12.271Z,13.42
2022-09-10T23:27:58.354Z,13.30
2022-09-10T23:30:45.879Z,13.38
2022-09-10T23:33:31.761Z,13.32
2022-09-10T23:36:18.459Z,13.36
2022-09-10T23:39:13.970Z,13.33
2022-09-10T23:41:59.948Z,13.18
2022-09-10T23:44:46.049Z,13.29
2022-09-10T23:47:32.034Z,13.27
2022-09-10T23:50:18.218Z,13.16
2022-09-10T23:53:04.715Z,13.18
2022-09-10T23:55:50.901Z,13.19
2022-09-10T23:58:37.291Z,13.14
